createdAt,value
2022-12-08T00:02:44.351Z,3.98
2022-12-08T00:08:24.805Z,3.82
2022-12-08T00:13:46.664Z,3.84
2022-12-08T00:19:08.352Z,3.77
2022-12-08T00:24:32.719Z,3.80
2022-12-08T00:29:54.406Z,3.79
2022-12-08T00:35:16.110Z,3.67
2022-12-08T00:40:37.826Z,3.64
2022-12-08T00:45:59.585Z,3.53
2022-12-08T00:51:21.340Z,3.23
2022-12-08T00:56:43.051Z,3.31
2022-12-08T01:02:04.736Z,3.27
2022-12-08T01:07:26.440Z,3.31
2022-12-08T01:12:48.160Z,3.19
2022-12-08T01:18:09.852Z,2.98
2022-12-08T01:23:31.588Z,2.88
2022-12-08T01:28:53.313Z,2.75
2022-12-08T01:34:15.167Z,2.63
2022-12-08T01:39:36.872Z,2.58
2022-12-08T01:45:02.668Z,2.52
2022-12-08T01:50:24.970Z,2.49
2022-12-08T01:56:02.825Z,2.26
2022-12-08T02:01:24.619Z,2.26
2022-12-08T02:06:47.629Z,2.15
2022-12-08T02:12:10.197Z,2.23
2022-12-08T02:18:04.639Z,2.27
2022-12-08T02:24:27.765Z,2.15
2022-12-08T02:30:21.957Z,2.21
2022-12-08T02:36:12.947Z,2.18
2022-12-08T02:41:56.227Z,2.04
2022-12-08T02:47:20.332Z,1.90
2022-12-08T02:52:44.698Z,1.89
2022-12-08T02:58:37.476Z,1.74
2022-12-08T03:04:25.540Z,1.73
2022-12-08T03:09:56.331Z,1.98
2022-12-08T03:15:20.330Z,1.87
2022-12-08T03:20:44.187Z,1.99
2022-12-08T03:26:13.321Z,2.09
2022-12-08T03:31:47.519Z,1.81
2022-12-08T03:37:09.388Z,1.51
2022-12-08T03:42:31.084Z,1.45
2022-12-08T03:47:52.789Z,1.40
2022-12-08T03:53:14.597Z,1.43
2022-12-08T03:58:37.662Z,1.63
2022-12-08T04:03:59.513Z,1.83
2022-12-08T04:09:21.266Z,1.60
2022-12-08T04:14:43.240Z,1.57
2022-12-08T04:20:05.949Z,1.61
2022-12-08T04:25:27.865Z,1.36
2022-12-08T04:30:49.952Z,1.31
2022-12-08T04:36:11.848Z,1.38
2022-12-08T04:41:33.612Z,1.22
2022-12-08T04:46:55.343Z,1.27
2022-12-08T04:52:17.107Z,1.47
2022-12-08T04:57:38.784Z,1.34
2022-12-08T05:03:00.577Z,1.25
2022-12-08T05:08:22.471Z,1.13
2022-12-08T05:13:44.192Z,1.14
2022-12-08T05:19:05.882Z,1.14
2022-12-08T05:24:27.586Z,1.15
2022-12-08T05:29:50.150Z,1.15
2022-12-08T05:35:11.941Z,1.10
2022-12-08T05:40:33.714Z,1.26
2022-12-08T05:45:55.504Z,1.26
2022-12-08T05:51:22.340Z,1.30
2022-12-08T05:56:44.159Z,1.27
2022-12-08T06:02:05.995Z,1.05
2022-12-08T06:07:27.781Z,1.09
2022-12-08T06:12:49.439Z,1.04
2022-12-08T06:18:11.876Z,1.01
2022-12-08T06:23:33.797Z,0.96
2022-12-08T06:28:55.490Z,1.00
2022-12-08T06:34:17.184Z,0.92
2022-12-08T06:39:38.905Z,0.92
2022-12-08T06:45:00.738Z,1.18
2022-12-08T06:50:22.723Z,1.20
2022-12-08T06:56:00.287Z,1.29
2022-12-08T07:01:22.296Z,1.40
2022-12-08T07:06:44.113Z,1.13
2022-12-08T07:12:05.946Z,1.10
2022-12-08T07:17:27.699Z,1.21
2022-12-08T07:22:52.972Z,1.25
2022-12-08T07:28:14.740Z,1.31
2022-12-08T07:33:36.598Z,1.13
2022-12-08T07:38:58.411Z,1.15
2022-12-08T07:44:20.064Z,1.27
2022-12-08T07:49:41.780Z,1.24
2022-12-08T07:55:03.589Z,1.13
2022-12-08T08:00:25.615Z,1.26
2022-12-08T08:05:49.188Z,1.34
2022-12-08T08:11:18.908Z,1.15
2022-12-08T08:16:46.753Z,1.25
2022-12-08T08:22:08.542Z,1.20
2022-12-08T08:27:30.290Z,1.28
2022-12-08T08:32:52.368Z,1.22
2022-12-08T08:38:14.324Z,1.35
2022-12-08T08:43:38.675Z,1.42
2022-12-08T08:49:00.897Z,1.43
2022-12-08T08:54:22.747Z,1.40
2022-12-08T08:59:44.435Z,1.54
2022-12-08T09:05:06.806Z,1.65
2022-12-08T09:10:28.614Z,1.77
2022-12-08T09:15:50.300Z,1.84
2022-12-08T09:21:16.377Z,1.87
2022-12-08T09:26:38.145Z,1.96
2022-12-08T09:31:59.837Z,2.10
2022-12-08T09:37:21.617Z,2.20
2022-12-08T09:42:55.999Z,2.31
2022-12-08T09:48:24.135Z,2.49
2022-12-08T09:53:54.815Z,2.41
2022-12-08T09:59:24.842Z,2.55
2022-12-08T10:04:46.688Z,2.44
2022-12-08T10:10:33.387Z,2.51
2022-12-08T10:16:11.083Z,2.50
2022-12-08T10:21:34.702Z,2.57
2022-12-08T10:26:57.820Z,2.62
2022-12-08T10:32:23.029Z,2.79
2022-12-08T10:38:01.698Z,2.84
2022-12-08T10:43:27.584Z,2.96
2022-12-08T10:48:54.537Z,3.35
2022-12-08T10:54:33.984Z,3.56
2022-12-08T10:59:58.223Z,3.61
2022-12-08T11:05:22.448Z,3.84
2022-12-08T11:10:45.302Z,4.11
2022-12-08T11:16:07.796Z,5.80
2022-12-08T11:21:37.304Z,5.75
2022-12-08T11:27:04.411Z,5.01
2022-12-08T11:32:26.423Z,4.76
2022-12-08T11:37:48.551Z,4.86
2022-12-08T11:43:19.421Z,5.00
2022-12-08T11:48:45.569Z,4.85
2022-12-08T11:54:24.446Z,4.86
2022-12-08T11:59:50.971Z,4.88
2022-12-08T12:06:09.114Z,4.81
2022-12-08T12:12:15.787Z,4.85
2022-12-08T12:17:42.857Z,4.86
2022-12-08T12:23:27.994Z,4.92
2022-12-08T12:29:15.772Z,4.96
2022-12-08T12:34:50.869Z,4.82
2022-12-08T12:40:25.849Z,4.76
2022-12-08T12:45:47.677Z,4.86
2022-12-08T12:51:35.205Z,4.76
2022-12-08T12:57:18.721Z,4.89
2022-12-08T13:02:48.884Z,4.82
2022-12-08T13:08:24.264Z,4.82
2022-12-08T13:13:57.541Z,4.81
2022-12-08T13:19:21.444Z,4.62
2022-12-08T13:24:43.824Z,4.78
2022-12-08T13:30:48.048Z,4.73
2022-12-08T13:36:22.550Z,4.71
2022-12-08T13:41:51.968Z,4.58
2022-12-08T13:47:33.980Z,4.64
2022-12-08T13:59:19.231Z,4.60
2022-12-08T14:05:16.758Z,4.63
2022-12-08T14:10:30.349Z,4.58
2022-12-08T14:15:52.090Z,4.59
2022-12-08T14:21:21.789Z,4.57
2022-12-08T14:26:47.095Z,4.56
2022-12-08T14:32:42.333Z,4.50
2022-12-08T14:38:13.970Z,4.53
2022-12-08T14:43:36.001Z,4.61
2022-12-08T14:48:58.680Z,4.62
2022-12-08T14:54:20.435Z,4.66
2022-12-08T14:59:43.377Z,4.57
2022-12-08T15:05:12.360Z,4.58
2022-12-08T15:10:37.934Z,4.52
2022-12-08T15:15:59.772Z,4.62
2022-12-08T15:21:35.556Z,4.59
2022-12-08T15:26:57.386Z,4.49
2022-12-08T15:32:21.578Z,4.51
2022-12-08T15:37:44.616Z,4.39
2022-12-08T15:43:10.801Z,4.40
2022-12-08T15:48:32.512Z,4.38
2022-12-08T15:53:54.265Z,4.37
2022-12-08T15:59:22.416Z,4.54
2022-12-08T16:10:35.380Z,4.37
2022-12-08T16:16:11.516Z,4.38
2022-12-08T16:22:12.145Z,4.31
2022-12-08T16:28:00.109Z,4.19
2022-12-08T16:33:02.937Z,4.27
2022-12-08T16:38:24.726Z,4.18
2022-12-08T16:43:46.452Z,4.15
2022-12-08T16:49:09.242Z,4.12
2022-12-08T16:54:31.285Z,4.13
2022-12-08T16:59:53.327Z,4.11
2022-12-08T17:05:16.950Z,4.21
2022-12-08T17:10:39.937Z,4.16
2022-12-08T17:16:02.970Z,4.05
2022-12-08T17:21:24.792Z,3.98
2022-12-08T17:26:46.834Z,4.01
2022-12-08T17:32:08.663Z,3.94
2022-12-08T17:37:30.391Z,4.10
2022-12-08T17:42:52.154Z,4.06
2022-12-08T17:48:14.936Z,4.13
2022-12-08T17:53:37.599Z,3.96
2022-12-08T17:59:03.317Z,3.97
2022-12-08T18:04:26.466Z,4.11
2022-12-08T18:09:48.143Z,4.09
2022-12-08T18:15:15.649Z,4.04
2022-12-08T18:20:37.563Z,4.16
2022-12-08T18:25:59.411Z,4.01
2022-12-08T18:31:22.617Z,4.00
2022-12-08T18:36:45.003Z,3.93
2022-12-08T18:42:25.057Z,3.96
2022-12-08T18:47:47.169Z,3.97
2022-12-08T18:53:08.865Z,3.84
2022-12-08T18:58:30.550Z,3.71
2022-12-08T19:04:19.979Z,3.65
2022-12-08T19:09:33.977Z,3.56
2022-12-08T19:14:56.676Z,3.50
2022-12-08T19:20:18.460Z,3.37
2022-12-08T19:25:40.902Z,3.47
2022-12-08T19:31:09.893Z,3.29
2022-12-08T19:36:35.393Z,3.21
2022-12-08T19:42:15.510Z,3.20
2022-12-08T19:47:38.327Z,3.03
2022-12-08T19:53:01.105Z,2.89
2022-12-08T19:58:22.855Z,2.94
2022-12-08T20:03:44.593Z,2.86
2022-12-08T20:09:07.213Z,2.88
2022-12-08T20:14:28.958Z,2.73
2022-12-08T20:19:50.911Z,2.87
2022-12-08T20:25:13.291Z,2.64
2022-12-08T20:30:38.364Z,2.52
2022-12-08T20:36:02.837Z,2.50
2022-12-08T20:41:24.615Z,2.46
2022-12-08T20:46:49.617Z,2.34
2022-12-08T20:52:11.570Z,2.14
2022-12-08T20:57:34.052Z,2.25
2022-12-08T21:02:56.989Z,2.15
2022-12-08T21:08:19.886Z,1.95
2022-12-08T21:13:43.149Z,1.91
2022-12-08T21:19:06.178Z,1.82
2022-12-08T21:24:33.709Z,1.78
2022-12-08T21:29:56.512Z,1.96
2022-12-08T21:35:18.672Z,2.04
2022-12-08T21:40:40.620Z,1.77
2022-12-08T21:46:02.468Z,1.67
2022-12-08T21:51:24.617Z,1.44
2022-12-08T21:56:48.010Z,1.45
2022-12-08T22:02:14.681Z,1.55
2022-12-08T22:07:41.374Z,1.64
2022-12-08T22:13:03.296Z,1.43
2022-12-08T22:18:25.574Z,1.53
2022-12-08T22:23:47.584Z,1.55
2022-12-08T22:29:09.603Z,1.58
2022-12-08T22:34:31.472Z,1.65
2022-12-08T22:39:53.443Z,1.57
2022-12-08T22:45:15.308Z,1.41
2022-12-08T22:50:37.307Z,1.62
2022-12-08T22:55:59.142Z,1.46
2022-12-08T23:01:29.979Z,1.43
2022-12-08T23:06:51.866Z,1.42
2022-12-08T23:12:14.051Z,1.57
2022-12-08T23:17:36.021Z,1.52
2022-12-08T23:22:57.836Z,1.47
2022-12-08T23:28:19.521Z,1.27
2022-12-08T23:33:41.473Z,1.35
2022-12-08T23:39:04.672Z,1.35
2022-12-08T23:44:26.456Z,1.31
2022-12-08T23:49:48.301Z,1.21
2022-12-08T23:55:11.171Z,1.02
